Bear Lake, PA (16402)

12:34 PM EDT on June 23, 2017 (GMT -0400)
Pine Valley | | Change Station

Elev 1430 ft 41.95 °N, 79.52 °W | Updated 19 seconds ago

Rain
Rain
66.0 °F
Feels Like 66.0 °F
N
0.0
Wind Variable Wind from WSW
Gusts 0.0 mph

Today
High -- | Low -- °F
--% Chance of Precip.
Yesterday
High -- | Low -- °F
Precip. -- in
Pressure 29.70 in
Visibility 9.0 miles
Clouds Scattered Clouds 600 ft
Mostly Cloudy 1300 ft
Overcast 3500 ft
Dew Point 66 °F
Humidity 99%
Rainfall 0.81 in
Snow Depth Not available.
5:43 AM 8:57 PM
Waning Crescent, 0% visible
METAR KJHW 231615Z AUTO 21012KT 9SM SCT006 BKN013 OVC035 20/18 A2970 RMK AO1 P0005
Pressure 29.70 in
Visibility 9.0 miles
Clouds Scattered Clouds 600 ft
Mostly Cloudy 1300 ft
Overcast 3500 ft
Dew Point 66 °F
Humidity 99%
Rainfall 0.81 in
Snow Depth Not available.
5:43 AM 8:57 PM
Waning Crescent, 0% visible
METAR KJHW 231615Z AUTO 21012KT 9SM SCT006 BKN013 OVC035 20/18 A2970 RMK AO1 P0005

Get Severe Weather Alerts

Thanks for signing up!

Be on the lookout for a verification email in your inbox.

You'll start receiving the daily forecast at 6 AM.

×

10-Day Weather Forecast

Almanac

Astronomy

Jun. 23, 2017 Rise Set
Actual Time
Civil Twilight
Nautical Twilight
Astronomical Twilight
Moon
Length of Visible Light
Length of Day
Tomorrow will be .
, % of the Moon is Illuminated

Today's Extremes

State Highs State Lows

Community

WunderPhotos

Category 6

Welcome to Category 6. This is the collective home for Weather Underground's featured writeups by Dr. Jeff Masters (right), Bob Henson (left), Chris Burt, and other regular contributors.

Nearby

Air Quality

  Air Quality AQ Index Pollutant
Not available.

Snow Depth

Station Depth Elevation

Earthquake Activity

City Distance Mag. Time & Date
Minimum magnitude displayed is 2.5.

Coastal Water Temperatures

Place Temperature

Stations

Nearby Weather Stations

Station Location Temp. Windchill Dew Point Humidity Wind Precip. Elev Updated Type
                   

Watches & Warnings

There are currently no watches in effect.